Time;durP1;ratioP1;P1;durP2;ratioP2;P2;SDS_P1;SDS_P2;PMS_P1;PMS_P2;Temp;Humidity;BMP_temperature;BMP_pressure;BME280_temperature;BME280_humidity;BME280_pressure;Samples;Min_cycle;Max_cycle;Signal;HPM_P1;HPM_P2
2023/12/31 00:08:37;;;;;;;16.33;11.55;;;;;;;20.63;52.85;100555.97;41327709;28;20060;-68
2023/12/31 00:28:38;;;;;;;13.75;11.10;;;;;;;20.58;53.19;100544.91;41336270;28;20061;-68
2023/12/31 00:48:39;;;;;;;15.32;10.95;;;;;;;20.55;52.64;100530.19;41323209;28;20121;-67
2023/12/31 01:08:39;;;;;;;13.52;10.85;;;;;;;20.52;52.77;100553.25;41335004;28;20061;-68
2023/12/31 01:28:39;;;;;;;15.27;11.23;;;;;;;20.50;53.36;100545.50;41347540;28;20050;-68
2023/12/31 01:48:40;;;;;;;14.15;10.95;;;;;;;20.45;53.08;100539.72;41358614;28;20046;-68
2023/12/31 02:08:41;;;;;;;13.73;10.45;;;;;;;20.40;52.59;100516.38;41342509;28;20048;-68
2023/12/31 02:28:41;;;;;;;14.55;10.43;;;;;;;20.37;53.19;100513.94;41332685;28;20073;-67
2023/12/31 02:48:41;;;;;;;13.52;10.43;;;;;;;20.36;52.53;100493.88;41352485;28;20077;-67
2023/12/31 03:08:42;;;;;;;12.18;9.38;;;;;;;20.33;52.64;100496.72;41331625;28;20478;-68
2023/12/31 03:28:42;;;;;;;11.02;9.27;;;;;;;20.30;53.08;100483.81;41326917;28;20068;-68
2023/12/31 03:48:43;;;;;;;11.18;9.15;;;;;;;20.30;53.02;100466.22;41340789;28;20045;-67
2023/12/31 04:08:43;;;;;;;12.25;9.45;;;;;;;20.25;52.67;100463.09;41266044;28;20387;-68
2023/12/31 04:28:43;;;;;;;12.18;8.82;;;;;;;20.24;53.71;100452.72;41180877;28;20404;-68
2023/12/31 04:48:44;;;;;;;12.32;9.25;;;;;;;20.26;53.35;100453.41;41340543;28;20042;-66
2023/12/31 05:08:45;;;;;;;12.07;9.10;;;;;;;20.24;53.36;100447.44;41339573;28;20054;-67
2023/12/31 05:28:46;;;;;;;10.88;9.23;;;;;;;20.88;51.43;100448.94;41355022;28;20034;-67
2023/12/31 05:48:46;;;;;;;12.07;9.52;;;;;;;21.07;51.08;100440.50;41354545;28;20069;-67
2023/12/31 06:08:47;;;;;;;11.82;9.70;;;;;;;21.20;50.34;100449.13;41342529;28;20059;-67
2023/12/31 06:28:48;;;;;;;12.35;10.43;;;;;;;21.22;51.29;100441.09;41365259;28;20054;-67
2023/12/31 06:48:48;;;;;;;13.15;10.98;;;;;;;21.19;50.20;100434.28;41355908;28;20046;-68
2023/12/31 07:08:49;;;;;;;12.05;10.27;;;;;;;21.16;50.22;100436.31;41348187;28;20050;-66
2023/12/31 07:28:49;;;;;;;106.95;23.40;;;;;;;21.41;50.36;100427.34;41331880;28;20544;-64
2023/12/31 07:48:51;;;;;;;46.33;18.13;;;;;;;21.55;50.64;100411.28;41303195;28;20054;-67
2023/12/31 08:08:52;;;;;;;35.42;15.82;;;;;;;21.71;51.00;100413.56;41248418;28;20052;-68
2023/12/31 08:28:52;;;;;;;35.40;15.80;;;;;;;21.59;51.86;100404.88;41331451;28;20046;-68
2023/12/31 08:48:53;;;;;;;32.72;16.35;;;;;;;21.63;52.11;100416.00;41334345;28;20300;-67
2023/12/31 09:08:53;;;;;;;39.88;18.15;;;;;;;21.30;47.80;100419.44;41343476;28;20042;-67
2023/12/31 09:28:55;;;;;;;30.23;18.10;;;;;;;21.37;49.86;100394.28;41345874;28;20133;-66
2023/12/31 09:48:55;;;;;;;27.33;16.67;;;;;;;21.55;49.87;100371.78;41352632;28;20030;-66
2023/12/31 10:08:57;;;;;;;29.05;15.50;;;;;;;21.43;50.33;100349.03;41359937;28;20375;-73
2023/12/31 10:28:58;;;;;;;22.10;15.00;;;;;;;21.43;50.99;100328.81;41357359;28;20042;-69
2023/12/31 10:49:05;;;;;;;27.73;14.43;;;;;;;21.80;50.45;100259.16;41376037;28;20073;-74
2023/12/31 11:09:07;;;;;;;22.92;13.60;;;;;;;21.66;50.99;100238.38;41362749;28;20042;-68
2023/12/31 11:29:11;;;;;;;34.75;17.25;;;;;;;21.81;53.02;100202.81;41332730;28;20042;-68
2023/12/31 11:49:12;;;;;;;38.03;17.60;;;;;;;21.86;52.83;100160.28;41327011;28;20053;-69
2023/12/31 12:09:13;;;;;;;37.78;19.27;;;;;;;21.89;56.13;100149.47;41334680;28;20054;-68
2023/12/31 12:29:17;;;;;;;45.05;20.45;;;;;;;21.86;56.94;100108.41;41332946;28;21071;-70
2023/12/31 12:49:19;;;;;;;40.70;20.23;;;;;;;21.96;57.19;100076.81;41329112;28;20056;-70
2023/12/31 13:09:20;;;;;;;43.35;20.58;;;;;;;22.11;56.51;100032.47;41351300;28;20152;-69
2023/12/31 13:29:20;;;;;;;42.88;23.67;;;;;;;22.00;57.41;99993.03;41383273;28;20521;-70
2023/12/31 13:49:24;;;;;;;123.22;39.55;;;;;;;22.17;58.10;99984.47;41374544;28;20042;-74
2023/12/31 14:09:25;;;;;;;88.30;39.78;;;;;;;22.07;55.87;99967.81;41373444;28;20121;-68
2023/12/31 14:29:25;;;;;;;63.65;33.25;;;;;;;21.99;54.63;99967.63;41339880;28;20040;-72
2023/12/31 14:49:26;;;;;;;51.35;25.42;;;;;;;21.59;51.27;99933.25;41342936;28;20116;-68
2023/12/31 15:09:26;;;;;;;42.38;20.70;;;;;;;21.69;50.72;99924.53;41347965;28;20521;-65
2023/12/31 15:29:27;;;;;;;35.58;19.20;;;;;;;21.78;52.26;99915.00;41334709;28;20038;-67
2023/12/31 15:49:28;;;;;;;33.35;18.15;;;;;;;21.87;52.12;99908.91;41348753;28;20061;-70
2023/12/31 16:09:28;;;;;;;31.15;16.88;;;;;;;21.91;52.25;99892.69;41327965;28;20042;-69
2023/12/31 16:29:29;;;;;;;26.55;16.27;;;;;;;22.04;53.02;99879.25;41344108;28;20058;-71
2023/12/31 16:49:31;;;;;;;26.45;15.95;;;;;;;22.01;52.76;99866.34;41352657;28;20074;-67
2023/12/31 17:09:31;;;;;;;24.58;14.52;;;;;;;22.07;52.96;99857.88;41221212;28;20085;-68
2023/12/31 17:29:32;;;;;;;22.55;14.15;;;;;;;22.08;52.91;99842.88;41384863;28;20062;-71
2023/12/31 17:49:32;;;;;;;22.40;13.45;;;;;;;22.11;53.05;99829.44;41376189;28;20050;-67
2023/12/31 18:09:37;;;;;;;20.52;13.50;;;;;;;22.12;52.56;99819.72;41363097;28;20050;-68
2023/12/31 18:29:38;;;;;;;19.38;13.35;;;;;;;22.14;52.99;99817.78;41347853;28;20058;-70
2023/12/31 18:49:42;;;;;;;22.52;14.27;;;;;;;22.15;53.22;99793.91;41358872;28;20046;-68
2023/12/31 19:09:43;;;;;;;21.65;14.15;;;;;;;22.25;52.97;99788.63;41347270;28;20052;-72
2023/12/31 19:29:44;;;;;;;26.33;17.20;;;;;;;22.30;53.12;99765.31;41381198;28;20073;-73
2023/12/31 19:49:44;;;;;;;25.00;17.92;;;;;;;22.33;53.11;99753.66;41316433;28;20054;-72
2023/12/31 20:09:46;;;;;;;26.98;17.63;;;;;;;22.30;53.21;99751.28;41297878;28;20052;-70
2023/12/31 20:29:48;;;;;;;32.58;22.83;;;;;;;22.16;51.20;99736.75;41372648;28;20535;-70
2023/12/31 20:49:49;;;;;;;39.53;22.63;;;;;;;21.75;51.95;99729.84;41348930;28;20644;-72
2023/12/31 21:09:49;;;;;;;43.50;29.75;;;;;;;21.35;50.45;99725.47;41340581;28;20136;-69
2023/12/31 21:29:50;;;;;;;46.13;27.85;;;;;;;21.46;52.06;99742.09;41348051;28;20058;-68
2023/12/31 21:49:51;;;;;;;40.10;26.90;;;;;;;21.50;52.55;99741.69;41364144;28;20489;-69
2023/12/31 22:09:54;;;;;;;43.92;28.30;;;;;;;21.47;52.91;99739.34;41362954;28;20038;-68
2023/12/31 22:29:55;;;;;;;45.30;30.67;;;;;;;21.32;53.44;99717.00;41371788;28;20052;-71
2023/12/31 22:49:55;;;;;;;45.17;30.10;;;;;;;21.32;53.41;99728.34;41366721;28;20052;-69
2023/12/31 23:09:55;;;;;;;41.63;29.13;;;;;;;21.38;53.69;99701.47;41344298;28;20050;-71
2023/12/31 23:29:56;;;;;;;45.83;31.33;;;;;;;21.23;53.55;99685.25;41363370;28;20050;-69
2023/12/31 23:49:56;;;;;;;47.42;31.48;;;;;;;21.18;54.21;99682.19;41249716;28;20057;-70
